createdAt,value
2023-03-04T00:02:38.382Z,98322.25
2023-03-04T00:05:43.947Z,98310.47
2023-03-04T00:08:53.266Z,98311.91
2023-03-04T00:11:58.610Z,98300.72
2023-03-04T00:15:04.899Z,98287.97
2023-03-04T00:18:10.312Z,98307.75
2023-03-04T00:21:16.608Z,98300.63
2023-03-04T00:24:25.193Z,98295.47
2023-03-04T00:27:31.552Z,98284.91
2023-03-04T00:30:37.838Z,98286.72
2023-03-04T00:33:44.566Z,98285.63
2023-03-04T00:36:50.176Z,98274.66
2023-03-04T00:39:59.715Z,98280.38
2023-03-04T00:43:05.733Z,98272.56
2023-03-04T00:46:12.148Z,98276.88
2023-03-04T00:49:17.718Z,98256.56
2023-03-04T00:52:24.003Z,98259.75
2023-03-04T00:55:32.257Z,98264.50
2023-03-04T00:58:39.627Z,98235.28
2023-03-04T01:01:45.112Z,98242.97
2023-03-04T01:04:51.702Z,98224.22
2023-03-04T01:07:57.477Z,98183.66
2023-03-04T01:11:07.362Z,98206.13
2023-03-04T01:14:13.046Z,98199.19
2023-03-04T01:17:19.562Z,98208.91
2023-03-04T01:20:26.709Z,98194.66
2023-03-04T01:23:33.103Z,98193.53
2023-03-04T01:26:41.308Z,98180.38
2023-03-04T01:29:47.596Z,98189.16
2023-03-04T01:32:53.101Z,98190.75
2023-03-04T01:35:59.825Z,98180.81
2023-03-04T01:39:05.648Z,98180.53
2023-03-04T01:42:23.992Z,98167.81
2023-03-04T01:45:30.018Z,98164.50
2023-03-04T01:48:41.265Z,98169.53
2023-03-04T01:51:52.480Z,98161.38
2023-03-04T01:55:00.540Z,98164.16
2023-03-04T01:58:13.169Z,98163.38
2023-03-04T02:01:19.828Z,98169.28
2023-03-04T02:04:31.587Z,98165.22
2023-03-04T02:07:37.985Z,98145.72
2023-03-04T02:10:46.550Z,97777.94
2023-03-04T02:13:56.139Z,98155.75
2023-03-04T02:17:01.824Z,98149.19
2023-03-04T02:20:28.586Z,98128.56
2023-03-04T02:23:45.490Z,98138.72
2023-03-04T02:26:55.134Z,98124.19
2023-03-04T02:30:00.758Z,98131.69
2023-03-04T02:33:08.159Z,98121.38
2023-03-04T02:36:15.427Z,98103.41
2023-03-04T02:39:33.443Z,98117.56
2023-03-04T02:42:41.877Z,98111.69
2023-03-04T02:45:52.390Z,98107.72
2023-03-04T02:48:58.010Z,98101.91
2023-03-04T02:52:08.546Z,98086.81
2023-03-04T02:55:14.295Z,98095.22
2023-03-04T02:58:23.774Z,98095.41
2023-03-04T03:01:32.737Z,98083.81
2023-03-04T03:04:42.893Z,98079.03
2023-03-04T03:07:51.813Z,98077.28
2023-03-04T03:10:58.346Z,98092.53
2023-03-04T03:14:08.633Z,98089.59
2023-03-04T03:17:15.277Z,98105.16
2023-03-04T03:20:22.318Z,98099.03
2023-03-04T03:23:28.619Z,98097.78
2023-03-04T03:26:34.171Z,98092.66
2023-03-04T03:29:43.480Z,98095.06
2023-03-04T03:32:49.004Z,98099.22
2023-03-04T03:35:55.653Z,98096.34
2023-03-04T03:39:01.195Z,98099.09
2023-03-04T03:42:07.724Z,98093.91
2023-03-04T03:45:16.507Z,98078.66
2023-03-04T03:48:23.410Z,98088.13
2023-03-04T03:51:28.895Z,98086.22
2023-03-04T03:54:35.135Z,98088.88
2023-03-04T03:57:40.495Z,98085.56
2023-03-04T04:00:49.616Z,98088.88
2023-03-04T04:03:56.019Z,98088.94
2023-03-04T04:07:02.252Z,98083.16
2023-03-04T04:10:09.851Z,98085.34
2023-03-04T04:13:16.280Z,98084.91
2023-03-04T04:16:24.688Z,98087.88
2023-03-04T04:19:31.250Z,98088.63
2023-03-04T04:22:37.382Z,98083.63
2023-03-04T04:25:43.673Z,98086.50
2023-03-04T04:28:49.084Z,98066.06
2023-03-04T04:31:58.119Z,98082.97
2023-03-04T04:35:03.511Z,98076.09
2023-03-04T04:38:11.100Z,98079.66
2023-03-04T04:41:25.160Z,98070.63
2023-03-04T04:44:31.526Z,98075.50
2023-03-04T04:47:40.188Z,98080.59
2023-03-04T04:50:46.529Z,98072.19
2023-03-04T04:53:52.675Z,98072.00
2023-03-04T04:56:58.987Z,98080.66
2023-03-04T05:00:04.441Z,98068.88
2023-03-04T05:03:13.728Z,98067.47
2023-03-04T05:06:19.878Z,98072.31
2023-03-04T05:09:26.305Z,98063.75
2023-03-04T05:12:32.060Z,98066.00
2023-03-04T05:15:40.355Z,98071.91
2023-03-04T05:18:48.868Z,98057.41
2023-03-04T05:21:55.144Z,98056.72
2023-03-04T05:25:00.594Z,98058.59
2023-03-04T05:28:12.533Z,98059.91
2023-03-04T05:31:18.546Z,98064.16
2023-03-04T05:34:27.620Z,98050.53
2023-03-04T05:37:33.077Z,98045.34
2023-03-04T05:40:40.320Z,98048.72
2023-03-04T05:43:45.684Z,98034.16
2023-03-04T05:46:52.012Z,98043.63
2023-03-04T05:50:00.441Z,98044.50
2023-03-04T05:53:07.042Z,98050.16
2023-03-04T05:56:15.939Z,98042.38
2023-03-04T05:59:22.209Z,98037.00
2023-03-04T06:02:27.738Z,98032.06
2023-03-04T06:05:36.783Z,98026.66
2023-03-04T06:08:42.266Z,98033.88
2023-03-04T06:11:48.484Z,98039.06
2023-03-04T06:14:54.056Z,98031.75
2023-03-04T06:18:00.632Z,98029.38
2023-03-04T06:21:11.993Z,98027.44
2023-03-04T06:24:18.542Z,98022.91
2023-03-04T06:27:24.194Z,98023.97
2023-03-04T06:30:30.544Z,98035.00
2023-03-04T06:33:36.080Z,98035.88
2023-03-04T06:36:45.195Z,98048.31
2023-03-04T06:39:50.624Z,98054.84
2023-03-04T06:42:56.971Z,98048.47
2023-03-04T06:46:02.306Z,98049.41
2023-03-04T06:49:08.553Z,98058.19
2023-03-04T06:52:16.764Z,98078.06
2023-03-04T06:55:23.762Z,98080.28
2023-03-04T06:58:29.177Z,98088.13
2023-03-04T07:01:36.516Z,98081.56
2023-03-04T07:04:42.157Z,98082.16
2023-03-04T07:07:51.196Z,98086.50
2023-03-04T07:10:56.646Z,98075.44
2023-03-04T07:14:02.904Z,98092.81
2023-03-04T07:17:08.619Z,98064.22
2023-03-04T07:20:15.841Z,98071.06
2023-03-04T07:23:24.439Z,98079.41
2023-03-04T07:26:30.748Z,98080.34
2023-03-04T07:29:36.161Z,98076.50
2023-03-04T07:32:42.488Z,98092.44
2023-03-04T07:35:48.190Z,98085.09
2023-03-04T07:38:58.077Z,98074.03
2023-03-04T07:42:03.552Z,98092.53
2023-03-04T07:45:11.223Z,98088.75
2023-03-04T07:48:16.576Z,98077.09
2023-03-04T07:51:26.017Z,98091.88
2023-03-04T07:54:34.637Z,98089.13
2023-03-04T07:57:43.068Z,98074.16
2023-03-04T08:00:48.478Z,98080.56
2023-03-04T08:03:54.991Z,98084.16
2023-03-04T08:07:00.665Z,98087.38
2023-03-04T08:10:11.335Z,98084.78
2023-03-04T08:13:16.809Z,98020.97
2023-03-04T08:16:26.998Z,98112.59
2023-03-04T08:19:32.958Z,98105.56
2023-03-04T08:22:39.246Z,98092.59
2023-03-04T08:25:48.881Z,98096.44
2023-03-04T08:28:56.629Z,97994.66
2023-03-04T08:32:02.700Z,98089.22
2023-03-04T08:35:09.464Z,98096.69
2023-03-04T08:38:14.900Z,98086.72
2023-03-04T08:41:25.822Z,98083.97
2023-03-04T08:44:31.271Z,98080.50
2023-03-04T08:47:37.534Z,98066.06
2023-03-04T08:50:43.227Z,98080.81
2023-03-04T08:53:49.537Z,98079.88
2023-03-04T08:56:57.951Z,98085.03
2023-03-04T09:00:04.541Z,98089.25
2023-03-04T09:03:10.232Z,98069.50
2023-03-04T09:06:19.760Z,98075.53
2023-03-04T09:09:25.208Z,98074.16
2023-03-04T09:12:34.305Z,98082.59
2023-03-04T09:15:39.823Z,98075.91
2023-03-04T09:18:47.186Z,98083.59
2023-03-04T09:21:52.620Z,98062.47
2023-03-04T09:24:58.913Z,98080.09
2023-03-04T09:28:08.437Z,98059.59
2023-03-04T09:31:16.923Z,98080.13
2023-03-04T09:34:22.405Z,98072.41
2023-03-04T09:37:28.948Z,98065.63
2023-03-04T09:40:43.362Z,98080.50
2023-03-04T09:43:57.313Z,98084.94
2023-03-04T09:47:07.657Z,98070.88
2023-03-04T09:50:16.272Z,98007.25
2023-03-04T09:53:31.007Z,98075.59
2023-03-04T09:56:41.586Z,98070.84
2023-03-04T10:00:08.106Z,98069.94
2023-03-04T10:03:28.077Z,98061.22
2023-03-04T10:06:35.701Z,98061.22
2023-03-04T10:09:56.966Z,97953.06
2023-03-04T10:13:07.859Z,98064.97
2023-03-04T10:16:27.558Z,98048.06
2023-03-04T10:19:55.875Z,98052.28
2023-03-04T10:23:13.637Z,98034.97
2023-03-04T10:26:23.380Z,98027.38
2023-03-04T10:29:29.648Z,98041.84
2023-03-04T10:32:37.783Z,98030.66
2023-03-04T10:35:51.841Z,98035.28
2023-03-04T10:39:01.645Z,98041.00
2023-03-04T10:42:27.597Z,98034.31
2023-03-04T10:45:36.846Z,97802.16
2023-03-04T10:48:48.258Z,98022.84
2023-03-04T10:52:03.620Z,98017.56
2023-03-04T10:55:20.867Z,98003.16
2023-03-04T10:58:26.312Z,97997.25
2023-03-04T11:01:32.920Z,98000.94
2023-03-04T11:04:41.396Z,97991.34
2023-03-04T11:07:56.159Z,97996.78
2023-03-04T11:11:02.726Z,97996.59
2023-03-04T11:14:26.273Z,98009.31
2023-03-04T11:17:45.329Z,97997.69
2023-03-04T11:20:55.818Z,97995.81
2023-03-04T11:24:15.900Z,97991.13
2023-03-04T11:27:45.147Z,97979.31
2023-03-04T11:30:58.983Z,97980.69
2023-03-04T11:34:15.338Z,97968.13
2023-03-04T11:37:34.680Z,97971.22
2023-03-04T11:40:47.567Z,97957.47
2023-03-04T11:43:53.256Z,97974.81
2023-03-04T11:47:41.149Z,97962.94
2023-03-04T11:50:57.242Z,97953.69
2023-03-04T11:54:25.896Z,97966.38
2023-03-04T11:57:50.210Z,97953.53
2023-03-04T12:01:09.114Z,97957.16
2023-03-04T12:04:46.463Z,97958.44
2023-03-04T12:08:37.967Z,97953.81
2023-03-04T12:12:06.418Z,97940.59
2023-03-04T12:15:28.393Z,97934.28
2023-03-04T12:19:04.209Z,97944.16
2023-03-04T12:22:35.336Z,97954.66
2023-03-04T12:25:53.303Z,97945.09
2023-03-04T12:29:18.399Z,97930.97
2023-03-04T12:32:43.596Z,97930.75
2023-03-04T12:36:05.314Z,97921.78
2023-03-04T12:39:34.193Z,97936.09
2023-03-04T12:43:01.540Z,97923.63
2023-03-04T12:46:42.178Z,97923.44
2023-03-04T12:50:28.392Z,97918.19
2023-03-04T12:53:46.774Z,97937.16
2023-03-04T12:57:01.294Z,97923.72
2023-03-04T13:00:31.737Z,97888.84
2023-03-04T13:03:56.296Z,97913.84
2023-03-04T13:07:21.072Z,97899.50
2023-03-04T13:10:27.614Z,97906.13
2023-03-04T13:13:44.649Z,97911.03
2023-03-04T13:16:54.161Z,97891.44
2023-03-04T13:20:25.088Z,97900.56
2023-03-04T13:23:33.182Z,97903.84
2023-03-04T13:26:40.644Z,97883.63
2023-03-04T13:29:47.030Z,97885.25
2023-03-04T13:32:52.593Z,97896.59
2023-03-04T13:36:09.140Z,97889.41
2023-03-04T13:39:33.626Z,97881.31
2023-03-04T13:42:46.436Z,97885.84
2023-03-04T13:45:52.073Z,97886.50
2023-03-04T13:49:19.993Z,97883.94
2023-03-04T13:52:49.286Z,97877.00
2023-03-04T13:56:15.416Z,97885.00
2023-03-04T13:59:38.055Z,97888.13
2023-03-04T14:02:44.565Z,97886.84
2023-03-04T14:05:50.762Z,97885.56
2023-03-04T14:09:01.746Z,97805.59
2023-03-04T14:12:18.685Z,97884.75
2023-03-04T14:15:30.378Z,97874.84
2023-03-04T14:18:35.968Z,97863.00
2023-03-04T14:21:49.332Z,97863.34
2023-03-04T14:25:08.693Z,97779.75
2023-03-04T14:28:18.602Z,97864.97
2023-03-04T14:31:30.284Z,97868.44
2023-03-04T14:34:41.061Z,97851.44
2023-03-04T14:37:56.878Z,97863.91
2023-03-04T14:41:14.001Z,97873.88
2023-03-04T14:44:36.175Z,97863.13
2023-03-04T14:47:48.762Z,97808.09
2023-03-04T14:50:57.307Z,97833.72
2023-03-04T14:54:03.843Z,97866.00
2023-03-04T14:57:27.624Z,97845.16
2023-03-04T15:00:38.107Z,97855.47
2023-03-04T15:03:46.736Z,97858.34
2023-03-04T15:06:56.950Z,97850.25
2023-03-04T15:10:06.219Z,97865.81
2023-03-04T15:13:15.639Z,97861.47
2023-03-04T15:16:25.706Z,97854.34
2023-03-04T15:19:33.290Z,97850.56
2023-03-04T15:22:59.207Z,97836.38
2023-03-04T15:26:08.839Z,97851.41
2023-03-04T15:29:22.848Z,97846.47
2023-03-04T15:32:30.344Z,97836.25
2023-03-04T15:35:36.851Z,97846.38
2023-03-04T15:38:48.008Z,97835.69
2023-03-04T15:41:53.524Z,97848.63
2023-03-04T15:45:02.850Z,97852.03
2023-03-04T15:48:10.628Z,97830.03
2023-03-04T15:51:21.140Z,97839.00
2023-03-04T15:54:32.424Z,97836.75
2023-03-04T15:57:39.078Z,97858.97
2023-03-04T16:00:48.422Z,97847.66
2023-03-04T16:03:55.356Z,97842.34
2023-03-04T16:07:01.286Z,97848.97
2023-03-04T16:10:24.245Z,97850.56
2023-03-04T16:13:30.164Z,97835.56
2023-03-04T16:16:39.620Z,97846.03
2023-03-04T16:19:45.887Z,97800.59
2023-03-04T16:23:00.393Z,97850.69
2023-03-04T16:26:06.268Z,97850.41
2023-03-04T16:29:16.058Z,97842.78
2023-03-04T16:32:25.030Z,97845.28
2023-03-04T16:35:32.212Z,97844.50
2023-03-04T16:38:38.124Z,97844.03
2023-03-04T16:41:44.699Z,97840.94
2023-03-04T16:44:50.807Z,97858.06
2023-03-04T16:48:00.534Z,97838.34
2023-03-04T16:51:15.483Z,97845.94
2023-03-04T16:54:32.649Z,97850.28
2023-03-04T16:57:38.340Z,97850.69
2023-03-04T17:00:44.940Z,97843.53
2023-03-04T17:03:53.872Z,97855.22
2023-03-04T17:07:00.462Z,97847.13
2023-03-04T17:10:09.410Z,97858.47
2023-03-04T17:13:19.546Z,97868.09
2023-03-04T17:16:25.448Z,97851.16
2023-03-04T17:19:35.709Z,97861.69
2023-03-04T17:22:41.663Z,97865.72
2023-03-04T17:25:48.211Z,97870.00
2023-03-04T17:28:55.218Z,97876.66
2023-03-04T17:32:01.905Z,97877.56
2023-03-04T17:35:13.227Z,97879.34
2023-03-04T17:38:20.760Z,97873.19
2023-03-04T17:41:33.759Z,97871.00
2023-03-04T17:44:47.678Z,97870.81
2023-03-04T17:48:00.325Z,97861.59
2023-03-04T17:51:09.844Z,97861.47
2023-03-04T17:54:20.996Z,97860.84
2023-03-04T17:57:28.962Z,97868.69
2023-03-04T18:00:34.764Z,97861.16
2023-03-04T18:03:41.274Z,97865.44
2023-03-04T18:06:50.049Z,97854.16
2023-03-04T18:09:56.714Z,97866.75
2023-03-04T18:13:03.171Z,97871.47
2023-03-04T18:16:12.080Z,97873.88
2023-03-04T18:19:18.800Z,97877.94
2023-03-04T18:22:28.200Z,97863.75
2023-03-04T18:25:33.903Z,97872.94
2023-03-04T18:29:01.855Z,97864.22
2023-03-04T18:32:09.747Z,97857.59
2023-03-04T18:35:19.717Z,97856.59
2023-03-04T18:38:28.809Z,97850.44
2023-03-04T18:41:35.461Z,97857.47
2023-03-04T18:44:41.493Z,97847.28
2023-03-04T18:47:54.354Z,97869.25
2023-03-04T18:51:01.024Z,97850.84
2023-03-04T18:54:11.083Z,97858.03
2023-03-04T18:57:17.844Z,97865.81
2023-03-04T19:00:27.503Z,97861.59
2023-03-04T19:03:34.566Z,97867.38
2023-03-04T19:06:41.469Z,97869.63
2023-03-04T19:09:49.957Z,97867.88
2023-03-04T19:12:57.985Z,97869.34
2023-03-04T19:16:04.098Z,97860.72
2023-03-04T19:19:10.763Z,97862.41
2023-03-04T19:22:16.931Z,97865.41
2023-03-04T19:25:26.504Z,97859.50
2023-03-04T19:28:32.275Z,97865.66
2023-03-04T19:31:42.825Z,97861.44
2023-03-04T19:34:49.924Z,97862.59
2023-03-04T19:37:56.612Z,97869.06
2023-03-04T19:41:13.058Z,97862.75
2023-03-04T19:44:20.462Z,97868.41
2023-03-04T19:47:26.349Z,97864.03
2023-03-04T19:50:34.476Z,97878.59
2023-03-04T19:53:41.360Z,97873.13
2023-03-04T19:56:50.816Z,97869.75
2023-03-04T19:59:56.937Z,97875.19
2023-03-04T20:03:05.212Z,97875.50
2023-03-04T20:06:12.393Z,97858.31
2023-03-04T20:09:22.914Z,97864.56
2023-03-04T20:12:32.495Z,97860.66
2023-03-04T20:15:39.713Z,97795.94
2023-03-04T20:18:46.316Z,97866.47
2023-03-04T20:21:52.976Z,97871.47
2023-03-04T20:24:59.247Z,97865.00
2023-03-04T20:28:12.824Z,97874.38
2023-03-04T20:31:25.221Z,97876.66
2023-03-04T20:34:32.071Z,97885.78
2023-03-04T20:37:37.765Z,97871.56
2023-03-04T20:40:44.582Z,97867.81
2023-03-04T20:43:53.680Z,97867.56
2023-03-04T20:47:00.316Z,97879.25
2023-03-04T20:50:06.259Z,97869.13
2023-03-04T20:53:13.832Z,97874.19
2023-03-04T20:56:19.956Z,97872.53
2023-03-04T20:59:29.738Z,97882.31
2023-03-04T21:02:35.419Z,97885.97
2023-03-04T21:05:42.098Z,97872.56
2023-03-04T21:08:48.088Z,97864.38
2023-03-04T21:11:54.831Z,97943.06
2023-03-04T21:15:03.244Z,97924.22
2023-03-04T21:18:09.792Z,97908.88
2023-03-04T21:21:18.145Z,97907.72
2023-03-04T21:24:27.861Z,97918.66
2023-03-04T21:27:37.584Z,97916.84
2023-03-04T21:30:47.037Z,97919.53
2023-03-04T21:33:54.664Z,97911.75
2023-03-04T21:37:01.205Z,97902.50
2023-03-04T21:40:08.696Z,97910.19
2023-03-04T21:43:22.555Z,97901.41
2023-03-04T21:46:31.137Z,97894.44
2023-03-04T21:49:39.052Z,97874.66
2023-03-04T21:52:45.325Z,97894.28
2023-03-04T21:55:53.397Z,97891.88
2023-03-04T21:59:02.361Z,97891.59
2023-03-04T22:02:18.870Z,97887.44
2023-03-04T22:05:24.325Z,97890.59
2023-03-04T22:08:31.012Z,97902.53
2023-03-04T22:11:36.483Z,97885.41
2023-03-04T22:14:42.796Z,97883.47
2023-03-04T22:17:51.139Z,97872.84
2023-03-04T22:21:04.519Z,97854.44
2023-03-04T22:24:10.752Z,97876.28
2023-03-04T22:27:17.040Z,97882.94
2023-03-04T22:30:23.409Z,97887.34
2023-03-04T22:33:37.355Z,97886.31
2023-03-04T22:36:46.588Z,97888.91
2023-03-04T22:39:53.139Z,97887.22
2023-03-04T22:42:58.640Z,97889.81
2023-03-04T22:46:13.838Z,97889.94
2023-03-04T22:49:22.223Z,97890.22
2023-03-04T22:52:28.550Z,97897.22
2023-03-04T22:55:34.050Z,97894.63
2023-03-04T22:58:40.395Z,97901.53
2023-03-04T23:01:45.944Z,97898.09
2023-03-04T23:04:55.219Z,97897.16
2023-03-04T23:08:00.648Z,97902.31
2023-03-04T23:11:13.485Z,97909.31
2023-03-04T23:14:19.140Z,97907.41
2023-03-04T23:17:25.553Z,97910.72
2023-03-04T23:20:33.779Z,97913.31
2023-03-04T23:23:41.702Z,97926.53
2023-03-04T23:26:48.390Z,97895.53
2023-03-04T23:29:55.368Z,97906.03
2023-03-04T23:33:01.030Z,97901.63
2023-03-04T23:36:15.243Z,97908.31
2023-03-04T23:39:20.880Z,97914.34
2023-03-04T23:42:27.530Z,97922.13
2023-03-04T23:45:33.522Z,97917.69
2023-03-04T23:48:40.332Z,97909.09
2023-03-04T23:51:48.986Z,97922.53
2023-03-04T23:54:55.581Z,97925.88
2023-03-04T23:58:01.027Z,97897.81
